sensor_id;sensor_type;location;lat;lon;timestamp;P1;durP1;ratioP1;P2;durP2;ratioP2
38940;SDS011;43236;47.208;7.518;2022-07-29T00:00:41;6.45;;;3.22;;
38940;SDS011;43236;47.208;7.518;2022-07-29T00:03:31;7.00;;;2.90;;
38940;SDS011;43236;47.208;7.518;2022-07-29T00:06:18;5.25;;;3.00;;
38940;SDS011;43236;47.208;7.518;2022-07-29T00:09:06;5.22;;;3.03;;
38940;SDS011;43236;47.208;7.518;2022-07-29T00:11:53;5.25;;;3.20;;
38940;SDS011;43236;47.208;7.518;2022-07-29T00:14:43;6.03;;;3.08;;
38940;SDS011;43236;47.208;7.518;2022-07-29T00:17:30;7.55;;;2.78;;
38940;SDS011;43236;47.208;7.518;2022-07-29T00:20:18;5.47;;;3.15;;
38940;SDS011;43236;47.208;7.518;2022-07-29T00:23:05;5.78;;;3.50;;
38940;SDS011;43236;47.208;7.518;2022-07-29T00:25:52;5.00;;;3.10;;
38940;SDS011;43236;47.208;7.518;2022-07-29T00:28:39;6.15;;;3.28;;
38940;SDS011;43236;47.208;7.518;2022-07-29T00:31:27;7.22;;;3.47;;
38940;SDS011;43236;47.208;7.518;2022-07-29T00:34:14;5.88;;;3.70;;
38940;SDS011;43236;47.208;7.518;2022-07-29T00:37:16;7.45;;;3.65;;
38940;SDS011;43236;47.208;7.518;2022-07-29T00:40:03;7.88;;;4.00;;
38940;SDS011;43236;47.208;7.518;2022-07-29T00:42:51;6.80;;;3.67;;
38940;SDS011;43236;47.208;7.518;2022-07-29T00:45:39;9.57;;;4.25;;
38940;SDS011;43236;47.208;7.518;2022-07-29T00:48:26;11.00;;;4.25;;
38940;SDS011;43236;47.208;7.518;2022-07-29T00:51:13;9.20;;;4.38;;
38940;SDS011;43236;47.208;7.518;2022-07-29T00:54:03;7.85;;;4.32;;
38940;SDS011;43236;47.208;7.518;2022-07-29T00:56:50;8.65;;;4.95;;
38940;SDS011;43236;47.208;7.518;2022-07-29T00:59:37;9.02;;;4.57;;
38940;SDS011;43236;47.208;7.518;2022-07-29T01:02:24;11.18;;;5.07;;
38940;SDS011;43236;47.208;7.518;2022-07-29T01:05:12;9.50;;;4.97;;
38940;SDS011;43236;47.208;7.518;2022-07-29T01:07:59;7.20;;;4.47;;
38940;SDS011;43236;47.208;7.518;2022-07-29T01:10:48;11.27;;;4.68;;
38940;SDS011;43236;47.208;7.518;2022-07-29T01:13:37;7.97;;;4.50;;
38940;SDS011;43236;47.208;7.518;2022-07-29T01:16:25;11.77;;;4.75;;
38940;SDS011;43236;47.208;7.518;2022-07-29T01:19:21;11.63;;;4.78;;
38940;SDS011;43236;47.208;7.518;2022-07-29T01:22:25;5.90;;;4.00;;
38940;SDS011;43236;47.208;7.518;2022-07-29T01:28:49;10.57;;;4.38;;
38940;SDS011;43236;47.208;7.518;2022-07-29T01:31:47;11.45;;;5.43;;
38940;SDS011;43236;47.208;7.518;2022-07-29T01:34:41;13.43;;;5.40;;
38940;SDS011;43236;47.208;7.518;2022-07-29T01:37:33;9.38;;;5.60;;
38940;SDS011;43236;47.208;7.518;2022-07-29T01:40:31;8.75;;;5.63;;
38940;SDS011;43236;47.208;7.518;2022-07-29T01:43:23;10.52;;;5.43;;
38940;SDS011;43236;47.208;7.518;2022-07-29T01:46:20;9.73;;;5.38;;
38940;SDS011;43236;47.208;7.518;2022-07-29T01:49:14;9.30;;;5.47;;
38940;SDS011;43236;47.208;7.518;2022-07-29T01:52:03;10.25;;;5.15;;
38940;SDS011;43236;47.208;7.518;2022-07-29T01:54:55;7.47;;;4.78;;
38940;SDS011;43236;47.208;7.518;2022-07-29T01:57:45;8.82;;;4.55;;
38940;SDS011;43236;47.208;7.518;2022-07-29T02:00:34;8.60;;;4.72;;
38940;SDS011;43236;47.208;7.518;2022-07-29T02:03:23;9.65;;;5.13;;
38940;SDS011;43236;47.208;7.518;2022-07-29T02:06:12;6.95;;;4.45;;
38940;SDS011;43236;47.208;7.518;2022-07-29T02:09:03;12.23;;;4.78;;
38940;SDS011;43236;47.208;7.518;2022-07-29T02:11:53;10.93;;;5.38;;
38940;SDS011;43236;47.208;7.518;2022-07-29T02:14:51;11.45;;;5.55;;
38940;SDS011;43236;47.208;7.518;2022-07-29T02:17:41;12.05;;;4.90;;
38940;SDS011;43236;47.208;7.518;2022-07-29T02:20:31;7.00;;;4.75;;
38940;SDS011;43236;47.208;7.518;2022-07-29T02:23:20;15.65;;;5.35;;
38940;SDS011;43236;47.208;7.518;2022-07-29T02:26:08;12.50;;;5.38;;
38940;SDS011;43236;47.208;7.518;2022-07-29T02:28:56;6.05;;;3.78;;
38940;SDS011;43236;47.208;7.518;2022-07-29T02:31:45;8.75;;;4.03;;
38940;SDS011;43236;47.208;7.518;2022-07-29T02:34:34;6.32;;;4.00;;
38940;SDS011;43236;47.208;7.518;2022-07-29T02:37:25;7.32;;;3.90;;
38940;SDS011;43236;47.208;7.518;2022-07-29T02:40:14;7.45;;;3.80;;
38940;SDS011;43236;47.208;7.518;2022-07-29T02:43:02;8.32;;;3.88;;
38940;SDS011;43236;47.208;7.518;2022-07-29T02:45:52;7.43;;;3.67;;
38940;SDS011;43236;47.208;7.518;2022-07-29T02:48:41;13.15;;;3.83;;
38940;SDS011;43236;47.208;7.518;2022-07-29T02:51:40;7.72;;;3.83;;
38940;SDS011;43236;47.208;7.518;2022-07-29T02:54:34;7.50;;;3.92;;
38940;SDS011;43236;47.208;7.518;2022-07-29T02:57:28;10.32;;;4.32;;
38940;SDS011;43236;47.208;7.518;2022-07-29T03:00:20;7.43;;;4.45;;
38940;SDS011;43236;47.208;7.518;2022-07-29T03:03:11;9.48;;;5.13;;
38940;SDS011;43236;47.208;7.518;2022-07-29T03:06:01;6.80;;;4.80;;
38940;SDS011;43236;47.208;7.518;2022-07-29T03:08:49;12.98;;;5.07;;
38940;SDS011;43236;47.208;7.518;2022-07-29T03:11:39;11.77;;;5.00;;
38940;SDS011;43236;47.208;7.518;2022-07-29T03:14:27;7.63;;;4.30;;
38940;SDS011;43236;47.208;7.518;2022-07-29T03:17:14;8.43;;;4.00;;
38940;SDS011;43236;47.208;7.518;2022-07-29T03:20:02;8.25;;;3.60;;
38940;SDS011;43236;47.208;7.518;2022-07-29T03:22:49;5.25;;;2.95;;
38940;SDS011;43236;47.208;7.518;2022-07-29T03:25:37;7.22;;;3.30;;
38940;SDS011;43236;47.208;7.518;2022-07-29T03:28:25;6.97;;;3.15;;
38940;SDS011;43236;47.208;7.518;2022-07-29T03:31:13;7.65;;;3.80;;
38940;SDS011;43236;47.208;7.518;2022-07-29T03:34:00;5.78;;;3.35;;
38940;SDS011;43236;47.208;7.518;2022-07-29T03:36:47;7.95;;;3.85;;
38940;SDS011;43236;47.208;7.518;2022-07-29T03:39:35;7.10;;;3.60;;
38940;SDS011;43236;47.208;7.518;2022-07-29T03:42:28;7.38;;;4.03;;
38940;SDS011;43236;47.208;7.518;2022-07-29T03:45:19;6.18;;;3.83;;
38940;SDS011;43236;47.208;7.518;2022-07-29T03:48:08;8.55;;;4.13;;
38940;SDS011;43236;47.208;7.518;2022-07-29T03:50:59;17.70;;;8.82;;
38940;SDS011;43236;47.208;7.518;2022-07-29T03:53:46;10.48;;;4.60;;
38940;SDS011;43236;47.208;7.518;2022-07-29T03:56:35;9.90;;;4.70;;
38940;SDS011;43236;47.208;7.518;2022-07-29T03:59:25;11.57;;;4.75;;
38940;SDS011;43236;47.208;7.518;2022-07-29T04:02:15;11.70;;;4.72;;
38940;SDS011;43236;47.208;7.518;2022-07-29T04:05:02;8.15;;;4.20;;
38940;SDS011;43236;47.208;7.518;2022-07-29T04:07:50;14.18;;;4.82;;
38940;SDS011;43236;47.208;7.518;2022-07-29T04:10:37;12.45;;;4.75;;
38940;SDS011;43236;47.208;7.518;2022-07-29T04:13:24;9.30;;;5.25;;
38940;SDS011;43236;47.208;7.518;2022-07-29T04:16:11;10.10;;;5.85;;
38940;SDS011;43236;47.208;7.518;2022-07-29T04:19:00;9.30;;;5.63;;
38940;SDS011;43236;47.208;7.518;2022-07-29T04:21:47;8.23;;;5.47;;
38940;SDS011;43236;47.208;7.518;2022-07-29T04:24:35;10.45;;;5.13;;
38940;SDS011;43236;47.208;7.518;2022-07-29T04:27:22;8.57;;;4.93;;
38940;SDS011;43236;47.208;7.518;2022-07-29T04:30:09;11.13;;;5.00;;
38940;SDS011;43236;47.208;7.518;2022-07-29T04:32:57;12.73;;;4.53;;
38940;SDS011;43236;47.208;7.518;2022-07-29T04:35:47;10.73;;;4.90;;
38940;SDS011;43236;47.208;7.518;2022-07-29T04:38:34;10.90;;;4.80;;
38940;SDS011;43236;47.208;7.518;2022-07-29T04:41:21;9.35;;;4.55;;
38940;SDS011;43236;47.208;7.518;2022-07-29T04:44:08;10.13;;;4.65;;
38940;SDS011;43236;47.208;7.518;2022-07-29T04:46:56;7.47;;;3.97;;
38940;SDS011;43236;47.208;7.518;2022-07-29T04:49:43;14.02;;;5.25;;
38940;SDS011;43236;47.208;7.518;2022-07-29T04:52:31;10.23;;;5.28;;
38940;SDS011;43236;47.208;7.518;2022-07-29T04:55:19;8.00;;;4.90;;
38940;SDS011;43236;47.208;7.518;2022-07-29T04:58:07;9.73;;;5.28;;
38940;SDS011;43236;47.208;7.518;2022-07-29T05:00:54;9.38;;;5.18;;
38940;SDS011;43236;47.208;7.518;2022-07-29T05:03:41;8.05;;;4.63;;
38940;SDS011;43236;47.208;7.518;2022-07-29T05:06:29;8.20;;;4.72;;
38940;SDS011;43236;47.208;7.518;2022-07-29T05:09:17;8.38;;;4.97;;
38940;SDS011;43236;47.208;7.518;2022-07-29T05:12:05;11.88;;;5.20;;
38940;SDS011;43236;47.208;7.518;2022-07-29T05:14:53;8.60;;;4.57;;
38940;SDS011;43236;47.208;7.518;2022-07-29T05:17:40;8.30;;;4.40;;
38940;SDS011;43236;47.208;7.518;2022-07-29T05:20:27;8.88;;;4.90;;
38940;SDS011;43236;47.208;7.518;2022-07-29T05:23:14;8.50;;;4.95;;
38940;SDS011;43236;47.208;7.518;2022-07-29T05:26:03;10.50;;;4.57;;
38940;SDS011;43236;47.208;7.518;2022-07-29T05:28:50;7.95;;;5.03;;
38940;SDS011;43236;47.208;7.518;2022-07-29T05:31:37;10.73;;;5.15;;
38940;SDS011;43236;47.208;7.518;2022-07-29T05:34:24;9.30;;;5.35;;
38940;SDS011;43236;47.208;7.518;2022-07-29T05:37:11;13.73;;;6.35;;
38940;SDS011;43236;47.208;7.518;2022-07-29T05:39:59;9.70;;;5.75;;
38940;SDS011;43236;47.208;7.518;2022-07-29T05:42:47;13.13;;;5.90;;
38940;SDS011;43236;47.208;7.518;2022-07-29T05:45:34;9.70;;;6.25;;
38940;SDS011;43236;47.208;7.518;2022-07-29T05:48:22;10.95;;;6.88;;
38940;SDS011;43236;47.208;7.518;2022-07-29T05:51:09;9.45;;;5.70;;
38940;SDS011;43236;47.208;7.518;2022-07-29T05:53:56;11.15;;;6.63;;
38940;SDS011;43236;47.208;7.518;2022-07-29T05:56:43;10.35;;;6.70;;
38940;SDS011;43236;47.208;7.518;2022-07-29T05:59:32;10.90;;;6.88;;
38940;SDS011;43236;47.208;7.518;2022-07-29T06:02:22;13.43;;;7.47;;
38940;SDS011;43236;47.208;7.518;2022-07-29T06:05:09;12.05;;;7.10;;
38940;SDS011;43236;47.208;7.518;2022-07-29T06:07:56;12.85;;;7.07;;
38940;SDS011;43236;47.208;7.518;2022-07-29T06:10:43;13.68;;;6.45;;
38940;SDS011;43236;47.208;7.518;2022-07-29T06:13:30;9.10;;;5.85;;
38940;SDS011;43236;47.208;7.518;2022-07-29T06:16:19;9.00;;;5.45;;
38940;SDS011;43236;47.208;7.518;2022-07-29T06:19:06;8.55;;;4.53;;
38940;SDS011;43236;47.208;7.518;2022-07-29T06:21:53;8.15;;;4.97;;
38940;SDS011;43236;47.208;7.518;2022-07-29T06:24:40;8.20;;;5.13;;
38940;SDS011;43236;47.208;7.518;2022-07-29T06:27:29;7.47;;;5.22;;
38940;SDS011;43236;47.208;7.518;2022-07-29T06:30:16;11.85;;;5.53;;
38940;SDS011;43236;47.208;7.518;2022-07-29T06:33:04;13.10;;;5.88;;
38940;SDS011;43236;47.208;7.518;2022-07-29T06:35:51;10.85;;;6.43;;
38940;SDS011;43236;47.208;7.518;2022-07-29T06:38:39;9.75;;;5.97;;
38940;SDS011;43236;47.208;7.518;2022-07-29T06:41:26;10.05;;;5.95;;
38940;SDS011;43236;47.208;7.518;2022-07-29T06:44:13;12.30;;;6.78;;
38940;SDS011;43236;47.208;7.518;2022-07-29T06:47:00;11.55;;;6.55;;
38940;SDS011;43236;47.208;7.518;2022-07-29T06:49:48;10.20;;;7.32;;
38940;SDS011;43236;47.208;7.518;2022-07-29T06:52:36;11.07;;;7.03;;
38940;SDS011;43236;47.208;7.518;2022-07-29T06:55:23;13.02;;;7.10;;
38940;SDS011;43236;47.208;7.518;2022-07-29T06:58:10;10.23;;;6.45;;
38940;SDS011;43236;47.208;7.518;2022-07-29T07:00:57;15.93;;;6.43;;
38940;SDS011;43236;47.208;7.518;2022-07-29T07:03:45;13.35;;;6.65;;
38940;SDS011;43236;47.208;7.518;2022-07-29T07:06:33;8.93;;;6.18;;
38940;SDS011;43236;47.208;7.518;2022-07-29T07:09:20;14.38;;;7.38;;
38940;SDS011;43236;47.208;7.518;2022-07-29T07:12:07;12.25;;;6.85;;
38940;SDS011;43236;47.208;7.518;2022-07-29T07:14:55;10.63;;;6.55;;
38940;SDS011;43236;47.208;7.518;2022-07-29T07:17:42;13.52;;;6.43;;
38940;SDS011;43236;47.208;7.518;2022-07-29T07:20:29;13.98;;;7.22;;
38940;SDS011;43236;47.208;7.518;2022-07-29T07:23:17;11.43;;;6.85;;
38940;SDS011;43236;47.208;7.518;2022-07-29T07:26:05;9.55;;;6.28;;
38940;SDS011;43236;47.208;7.518;2022-07-29T07:28:52;10.07;;;6.68;;
38940;SDS011;43236;47.208;7.518;2022-07-29T07:31:39;10.10;;;6.35;;
38940;SDS011;43236;47.208;7.518;2022-07-29T07:34:26;9.93;;;5.90;;
38940;SDS011;43236;47.208;7.518;2022-07-29T07:37:13;8.90;;;6.68;;
38940;SDS011;43236;47.208;7.518;2022-07-29T07:40:02;12.55;;;7.25;;
38940;SDS011;43236;47.208;7.518;2022-07-29T07:42:50;13.82;;;7.65;;
38940;SDS011;43236;47.208;7.518;2022-07-29T07:45:37;11.60;;;7.45;;
38940;SDS011;43236;47.208;7.518;2022-07-29T07:48:25;11.05;;;7.13;;
38940;SDS011;43236;47.208;7.518;2022-07-29T07:51:12;12.27;;;6.75;;
38940;SDS011;43236;47.208;7.518;2022-07-29T07:53:59;11.13;;;6.03;;
38940;SDS011;43236;47.208;7.518;2022-07-29T07:56:48;9.45;;;5.82;;
38940;SDS011;43236;47.208;7.518;2022-07-29T07:59:35;11.18;;;5.20;;
38940;SDS011;43236;47.208;7.518;2022-07-29T08:02:22;10.15;;;5.10;;
38940;SDS011;43236;47.208;7.518;2022-07-29T08:05:10;9.77;;;4.97;;
38940;SDS011;43236;47.208;7.518;2022-07-29T08:08:01;7.53;;;4.90;;
38940;SDS011;43236;47.208;7.518;2022-07-29T08:10:48;13.73;;;4.75;;
38940;SDS011;43236;47.208;7.518;2022-07-29T08:13:43;9.30;;;4.47;;
38940;SDS011;43236;47.208;7.518;2022-07-29T08:16:30;8.90;;;4.30;;
38940;SDS011;43236;47.208;7.518;2022-07-29T08:19:17;8.30;;;4.50;;
38940;SDS011;43236;47.208;7.518;2022-07-29T08:22:04;7.05;;;4.28;;
38940;SDS011;43236;47.208;7.518;2022-07-29T08:24:51;7.40;;;4.47;;
38940;SDS011;43236;47.208;7.518;2022-07-29T08:27:39;8.07;;;3.95;;
38940;SDS011;43236;47.208;7.518;2022-07-29T08:30:27;6.40;;;3.67;;
38940;SDS011;43236;47.208;7.518;2022-07-29T08:33:14;7.38;;;3.55;;
38940;SDS011;43236;47.208;7.518;2022-07-29T08:36:02;6.65;;;3.70;;
38940;SDS011;43236;47.208;7.518;2022-07-29T08:38:49;8.40;;;3.22;;
38940;SDS011;43236;47.208;7.518;2022-07-29T08:41:36;7.07;;;3.58;;
38940;SDS011;43236;47.208;7.518;2022-07-29T08:44:24;8.65;;;3.78;;
38940;SDS011;43236;47.208;7.518;2022-07-29T08:47:14;5.68;;;3.58;;
38940;SDS011;43236;47.208;7.518;2022-07-29T08:50:02;6.47;;;3.90;;
38940;SDS011;43236;47.208;7.518;2022-07-29T08:52:49;9.65;;;4.30;;
38940;SDS011;43236;47.208;7.518;2022-07-29T08:55:38;6.75;;;3.88;;
38940;SDS011;43236;47.208;7.518;2022-07-29T08:58:26;6.28;;;3.83;;
38940;SDS011;43236;47.208;7.518;2022-07-29T09:01:20;8.18;;;4.00;;
38940;SDS011;43236;47.208;7.518;2022-07-29T09:04:11;5.82;;;3.63;;
38940;SDS011;43236;47.208;7.518;2022-07-29T09:07:00;7.28;;;3.85;;
38940;SDS011;43236;47.208;7.518;2022-07-29T09:09:50;7.55;;;3.55;;
38940;SDS011;43236;47.208;7.518;2022-07-29T09:12:37;12.80;;;3.53;;
38940;SDS011;43236;47.208;7.518;2022-07-29T09:15:25;5.95;;;3.70;;
38940;SDS011;43236;47.208;7.518;2022-07-29T09:18:12;8.30;;;3.25;;
38940;SDS011;43236;47.208;7.518;2022-07-29T09:21:20;7.07;;;2.85;;
38940;SDS011;43236;47.208;7.518;2022-07-29T09:24:26;6.97;;;2.80;;
38940;SDS011;43236;47.208;7.518;2022-07-29T09:27:22;6.65;;;2.65;;
38940;SDS011;43236;47.208;7.518;2022-07-29T09:30:13;8.25;;;3.47;;
38940;SDS011;43236;47.208;7.518;2022-07-29T09:33:01;5.68;;;3.13;;
38940;SDS011;43236;47.208;7.518;2022-07-29T09:35:58;5.88;;;2.85;;
38940;SDS011;43236;47.208;7.518;2022-07-29T09:38:47;7.78;;;3.30;;
38940;SDS011;43236;47.208;7.518;2022-07-29T09:41:48;5.43;;;3.05;;
38940;SDS011;43236;47.208;7.518;2022-07-29T09:44:41;9.73;;;3.47;;
38940;SDS011;43236;47.208;7.518;2022-07-29T09:47:40;8.32;;;3.25;;
38940;SDS011;43236;47.208;7.518;2022-07-29T09:50:36;8.90;;;3.53;;
38940;SDS011;43236;47.208;7.518;2022-07-29T09:53:31;5.95;;;3.75;;
38940;SDS011;43236;47.208;7.518;2022-07-29T09:56:21;6.95;;;3.30;;
38940;SDS011;43236;47.208;7.518;2022-07-29T09:59:24;7.97;;;3.20;;
38940;SDS011;43236;47.208;7.518;2022-07-29T10:02:12;8.65;;;2.83;;
38940;SDS011;43236;47.208;7.518;2022-07-29T10:04:59;7.20;;;3.17;;
38940;SDS011;43236;47.208;7.518;2022-07-29T10:07:47;11.55;;;3.70;;
38940;SDS011;43236;47.208;7.518;2022-07-29T10:10:37;5.32;;;2.75;;
38940;SDS011;43236;47.208;7.518;2022-07-29T10:13:26;6.40;;;3.03;;
38940;SDS011;43236;47.208;7.518;2022-07-29T10:16:14;6.57;;;2.70;;
38940;SDS011;43236;47.208;7.518;2022-07-29T10:19:02;5.75;;;2.60;;
38940;SDS011;43236;47.208;7.518;2022-07-29T10:21:49;7.18;;;2.90;;
38940;SDS011;43236;47.208;7.518;2022-07-29T10:24:37;8.65;;;2.95;;
38940;SDS011;43236;47.208;7.518;2022-07-29T10:27:25;4.50;;;2.80;;
38940;SDS011;43236;47.208;7.518;2022-07-29T10:30:14;7.07;;;2.75;;
38940;SDS011;43236;47.208;7.518;2022-07-29T10:33:08;7.38;;;2.95;;
38940;SDS011;43236;47.208;7.518;2022-07-29T10:36:10;6.43;;;3.17;;
38940;SDS011;43236;47.208;7.518;2022-07-29T10:39:11;4.43;;;2.75;;
38940;SDS011;43236;47.208;7.518;2022-07-29T10:42:08;7.95;;;2.85;;
38940;SDS011;43236;47.208;7.518;2022-07-29T10:45:03;4.47;;;2.42;;
38940;SDS011;43236;47.208;7.518;2022-07-29T10:48:03;5.55;;;2.90;;
38940;SDS011;43236;47.208;7.518;2022-07-29T10:50:51;4.57;;;2.83;;
38940;SDS011;43236;47.208;7.518;2022-07-29T10:53:46;5.45;;;2.78;;
38940;SDS011;43236;47.208;7.518;2022-07-29T10:56:34;5.35;;;2.78;;
38940;SDS011;43236;47.208;7.518;2022-07-29T10:59:25;5.95;;;2.63;;
38940;SDS011;43236;47.208;7.518;2022-07-29T11:05:30;6.60;;;2.67;;
38940;SDS011;43236;47.208;7.518;2022-07-29T11:08:41;6.07;;;2.47;;
38940;SDS011;43236;47.208;7.518;2022-07-29T11:11:31;5.30;;;2.60;;
38940;SDS011;43236;47.208;7.518;2022-07-29T11:14:20;6.03;;;2.63;;
38940;SDS011;43236;47.208;7.518;2022-07-29T11:20:51;7.07;;;2.45;;
38940;SDS011;43236;47.208;7.518;2022-07-29T11:23:39;5.07;;;2.50;;
38940;SDS011;43236;47.208;7.518;2022-07-29T11:26:28;5.35;;;2.60;;
38940;SDS011;43236;47.208;7.518;2022-07-29T11:29:17;4.45;;;2.47;;
38940;SDS011;43236;47.208;7.518;2022-07-29T11:32:08;4.07;;;2.13;;
38940;SDS011;43236;47.208;7.518;2022-07-29T11:35:13;4.97;;;2.60;;
38940;SDS011;43236;47.208;7.518;2022-07-29T11:41:20;4.85;;;2.30;;
38940;SDS011;43236;47.208;7.518;2022-07-29T11:44:11;3.53;;;2.20;;
38940;SDS011;43236;47.208;7.518;2022-07-29T11:47:00;6.88;;;2.80;;
38940;SDS011;43236;47.208;7.518;2022-07-29T11:49:48;6.32;;;2.88;;
38940;SDS011;43236;47.208;7.518;2022-07-29T11:52:37;4.95;;;1.85;;
38940;SDS011;43236;47.208;7.518;2022-07-29T11:55:31;3.60;;;1.50;;
38940;SDS011;43236;47.208;7.518;2022-07-29T11:58:21;4.10;;;1.50;;
38940;SDS011;43236;47.208;7.518;2022-07-29T12:01:09;2.33;;;1.38;;
38940;SDS011;43236;47.208;7.518;2022-07-29T12:04:03;6.78;;;1.45;;
38940;SDS011;43236;47.208;7.518;2022-07-29T12:06:52;2.35;;;1.30;;
38940;SDS011;43236;47.208;7.518;2022-07-29T12:09:40;4.63;;;1.50;;
38940;SDS011;43236;47.208;7.518;2022-07-29T12:12:37;2.75;;;1.35;;
38940;SDS011;43236;47.208;7.518;2022-07-29T12:15:25;2.42;;;1.48;;
38940;SDS011;43236;47.208;7.518;2022-07-29T12:18:13;3.28;;;1.70;;
38940;SDS011;43236;47.208;7.518;2022-07-29T12:21:02;2.65;;;1.40;;
38940;SDS011;43236;47.208;7.518;2022-07-29T12:23:52;5.55;;;1.80;;
38940;SDS011;43236;47.208;7.518;2022-07-29T12:26:48;3.03;;;1.50;;
38940;SDS011;43236;47.208;7.518;2022-07-29T12:29:37;3.58;;;1.40;;
38940;SDS011;43236;47.208;7.518;2022-07-29T12:32:30;3.47;;;1.50;;
38940;SDS011;43236;47.208;7.518;2022-07-29T12:35:18;6.63;;;1.35;;
38940;SDS011;43236;47.208;7.518;2022-07-29T12:38:06;2.70;;;1.23;;
38940;SDS011;43236;47.208;7.518;2022-07-29T12:40:55;5.38;;;1.98;;
38940;SDS011;43236;47.208;7.518;2022-07-29T12:43:51;6.05;;;2.55;;
38940;SDS011;43236;47.208;7.518;2022-07-29T12:46:40;6.13;;;2.67;;
38940;SDS011;43236;47.208;7.518;2022-07-29T12:49:27;5.13;;;1.75;;
38940;SDS011;43236;47.208;7.518;2022-07-29T12:52:27;3.97;;;1.70;;
38940;SDS011;43236;47.208;7.518;2022-07-29T12:55:15;4.68;;;1.80;;
38940;SDS011;43236;47.208;7.518;2022-07-29T12:58:02;4.25;;;1.70;;
38940;SDS011;43236;47.208;7.518;2022-07-29T13:00:57;4.05;;;1.95;;
38940;SDS011;43236;47.208;7.518;2022-07-29T13:03:51;4.32;;;2.17;;
38940;SDS011;43236;47.208;7.518;2022-07-29T13:06:42;6.43;;;1.88;;
38940;SDS011;43236;47.208;7.518;2022-07-29T13:09:37;5.32;;;2.15;;
38940;SDS011;43236;47.208;7.518;2022-07-29T13:12:25;5.18;;;2.28;;
38940;SDS011;43236;47.208;7.518;2022-07-29T13:15:13;4.57;;;2.00;;
38940;SDS011;43236;47.208;7.518;2022-07-29T13:18:01;7.13;;;2.45;;
38940;SDS011;43236;47.208;7.518;2022-07-29T13:20:50;7.30;;;3.10;;
38940;SDS011;43236;47.208;7.518;2022-07-29T13:23:37;6.28;;;2.97;;
38940;SDS011;43236;47.208;7.518;2022-07-29T13:26:25;5.40;;;3.15;;
38940;SDS011;43236;47.208;7.518;2022-07-29T13:29:13;7.82;;;3.08;;
38940;SDS011;43236;47.208;7.518;2022-07-29T13:32:00;5.50;;;3.25;;
38940;SDS011;43236;47.208;7.518;2022-07-29T13:34:47;6.78;;;3.30;;
38940;SDS011;43236;47.208;7.518;2022-07-29T13:37:35;11.85;;;3.05;;
38940;SDS011;43236;47.208;7.518;2022-07-29T13:40:23;6.88;;;2.35;;
38940;SDS011;43236;47.208;7.518;2022-07-29T13:43:11;11.27;;;3.13;;
38940;SDS011;43236;47.208;7.518;2022-07-29T13:45:58;9.32;;;3.30;;
38940;SDS011;43236;47.208;7.518;2022-07-29T13:48:45;6.95;;;2.95;;
38940;SDS011;43236;47.208;7.518;2022-07-29T13:51:32;10.90;;;3.03;;
38940;SDS011;43236;47.208;7.518;2022-07-29T13:54:20;7.75;;;2.88;;
38940;SDS011;43236;47.208;7.518;2022-07-29T13:57:08;11.07;;;3.10;;
38940;SDS011;43236;47.208;7.518;2022-07-29T13:59:55;5.88;;;2.95;;
38940;SDS011;43236;47.208;7.518;2022-07-29T14:02:43;6.00;;;2.47;;
38940;SDS011;43236;47.208;7.518;2022-07-29T14:05:30;10.73;;;2.97;;
38940;SDS011;43236;47.208;7.518;2022-07-29T14:08:17;7.97;;;3.20;;
38940;SDS011;43236;47.208;7.518;2022-07-29T14:11:05;10.48;;;3.65;;
38940;SDS011;43236;47.208;7.518;2022-07-29T14:13:52;10.70;;;3.67;;
38940;SDS011;43236;47.208;7.518;2022-07-29T14:16:39;7.00;;;3.80;;
38940;SDS011;43236;47.208;7.518;2022-07-29T14:19:27;6.75;;;3.88;;
38940;SDS011;43236;47.208;7.518;2022-07-29T14:22:14;9.07;;;3.80;;
38940;SDS011;43236;47.208;7.518;2022-07-29T14:25:04;7.05;;;3.35;;
38940;SDS011;43236;47.208;7.518;2022-07-29T14:27:53;8.88;;;2.70;;
38940;SDS011;43236;47.208;7.518;2022-07-29T14:30:40;5.30;;;2.78;;
38940;SDS011;43236;47.208;7.518;2022-07-29T14:33:27;7.47;;;2.95;;
38940;SDS011;43236;47.208;7.518;2022-07-29T14:36:15;5.85;;;2.53;;
38940;SDS011;43236;47.208;7.518;2022-07-29T14:39:02;5.25;;;2.88;;
38940;SDS011;43236;47.208;7.518;2022-07-29T14:41:49;6.43;;;2.40;;
38940;SDS011;43236;47.208;7.518;2022-07-29T14:44:38;5.55;;;2.25;;
38940;SDS011;43236;47.208;7.518;2022-07-29T14:47:26;4.63;;;2.63;;
38940;SDS011;43236;47.208;7.518;2022-07-29T14:50:13;4.78;;;2.45;;
38940;SDS011;43236;47.208;7.518;2022-07-29T14:53:00;8.32;;;2.75;;
38940;SDS011;43236;47.208;7.518;2022-07-29T14:55:47;4.88;;;2.78;;
38940;SDS011;43236;47.208;7.518;2022-07-29T14:58:35;7.80;;;2.45;;
38940;SDS011;43236;47.208;7.518;2022-07-29T15:01:23;5.07;;;2.95;;
38940;SDS011;43236;47.208;7.518;2022-07-29T15:04:11;5.75;;;2.30;;
38940;SDS011;43236;47.208;7.518;2022-07-29T15:06:58;6.20;;;2.80;;
38940;SDS011;43236;47.208;7.518;2022-07-29T15:09:45;4.47;;;2.72;;
38940;SDS011;43236;47.208;7.518;2022-07-29T15:12:33;5.53;;;2.80;;
38940;SDS011;43236;47.208;7.518;2022-07-29T15:15:20;6.70;;;2.97;;
38940;SDS011;43236;47.208;7.518;2022-07-29T15:18:08;5.75;;;2.97;;
38940;SDS011;43236;47.208;7.518;2022-07-29T15:20:55;5.30;;;2.88;;
38940;SDS011;43236;47.208;7.518;2022-07-29T15:23:43;7.75;;;3.13;;
38940;SDS011;43236;47.208;7.518;2022-07-29T15:26:30;5.65;;;3.10;;
38940;SDS011;43236;47.208;7.518;2022-07-29T15:29:17;7.60;;;2.75;;
38940;SDS011;43236;47.208;7.518;2022-07-29T15:32:04;6.40;;;2.72;;
38940;SDS011;43236;47.208;7.518;2022-07-29T15:34:53;6.82;;;3.05;;
38940;SDS011;43236;47.208;7.518;2022-07-29T15:37:40;7.95;;;3.42;;
38940;SDS011;43236;47.208;7.518;2022-07-29T15:40:27;6.00;;;2.95;;
38940;SDS011;43236;47.208;7.518;2022-07-29T15:43:14;5.15;;;3.08;;
38940;SDS011;43236;47.208;7.518;2022-07-29T15:46:01;5.25;;;2.78;;
38940;SDS011;43236;47.208;7.518;2022-07-29T15:51:55;6.43;;;2.75;;
38940;SDS011;43236;47.208;7.518;2022-07-29T15:54:42;7.38;;;2.85;;
38940;SDS011;43236;47.208;7.518;2022-07-29T15:57:29;5.85;;;3.15;;
38940;SDS011;43236;47.208;7.518;2022-07-29T16:00:17;6.30;;;3.00;;
38940;SDS011;43236;47.208;7.518;2022-07-29T16:03:04;5.47;;;2.70;;
38940;SDS011;43236;47.208;7.518;2022-07-29T16:05:51;5.65;;;2.75;;
38940;SDS011;43236;47.208;7.518;2022-07-29T16:08:39;5.53;;;2.78;;
38940;SDS011;43236;47.208;7.518;2022-07-29T16:11:26;6.68;;;3.28;;
38940;SDS011;43236;47.208;7.518;2022-07-29T16:14:13;5.57;;;3.00;;
38940;SDS011;43236;47.208;7.518;2022-07-29T16:17:00;6.35;;;3.17;;
38940;SDS011;43236;47.208;7.518;2022-07-29T16:19:48;5.68;;;2.97;;
38940;SDS011;43236;47.208;7.518;2022-07-29T16:22:35;9.07;;;3.20;;
38940;SDS011;43236;47.208;7.518;2022-07-29T16:25:24;10.32;;;3.33;;
38940;SDS011;43236;47.208;7.518;2022-07-29T16:28:11;7.22;;;3.65;;
38940;SDS011;43236;47.208;7.518;2022-07-29T16:30:58;6.63;;;2.75;;
38940;SDS011;43236;47.208;7.518;2022-07-29T16:33:45;8.27;;;3.75;;
38940;SDS011;43236;47.208;7.518;2022-07-29T16:36:32;6.35;;;2.85;;
38940;SDS011;43236;47.208;7.518;2022-07-29T16:39:19;7.30;;;2.92;;
38940;SDS011;43236;47.208;7.518;2022-07-29T16:42:07;6.43;;;3.00;;
38940;SDS011;43236;47.208;7.518;2022-07-29T16:44:54;6.30;;;3.50;;
38940;SDS011;43236;47.208;7.518;2022-07-29T16:47:42;8.20;;;3.00;;
38940;SDS011;43236;47.208;7.518;2022-07-29T16:50:29;7.07;;;3.22;;
38940;SDS011;43236;47.208;7.518;2022-07-29T16:53:16;6.75;;;3.33;;
38940;SDS011;43236;47.208;7.518;2022-07-29T16:56:04;6.47;;;3.05;;
38940;SDS011;43236;47.208;7.518;2022-07-29T16:58:52;5.95;;;3.40;;
38940;SDS011;43236;47.208;7.518;2022-07-29T17:01:39;8.23;;;3.30;;
38940;SDS011;43236;47.208;7.518;2022-07-29T17:04:26;5.05;;;3.08;;
38940;SDS011;43236;47.208;7.518;2022-07-29T17:07:14;6.57;;;3.40;;
38940;SDS011;43236;47.208;7.518;2022-07-29T17:10:01;7.82;;;3.13;;
38940;SDS011;43236;47.208;7.518;2022-07-29T17:12:49;6.65;;;3.03;;